Weather at Eton Cyberpod Helipads

Public forecast

Using degrees Celsius for public forecast. Weather courtesy of forecast.io.

Closest aviation weather report (METAR) to Eton Cyberpod Helipads

Closest report is Ninoy Aquino International Airport, 5.5 nm (10.3 km) SSW. Retrieved 2020/09/27 16:00 UTC (16 minutes ago):

RPLL 271600Z 23003KT 200V260 9999 FEW025 SCT100 28/25 Q1011 NOSIG RMK A2985

Closest aviation forecast (TAF) to Eton Cyberpod Helipads

Closest forecast is Ninoy Aquino International Airport, 5.5 nm (10.3 km) SSW. Retrieved 2020/09/27 12:32 UTC (4 hours ago):

TAF RPLL 271100Z 2712/2818 23007KT 9999 FEW025 BKN250 TX34/2806Z TN26/2721Z TEMPO 2712/2718 VRB04KT SCT025 SCT100 TEMPO 2718/2724 08002KT FEW025 SCT100